Time;durP1;ratioP1;P1;durP2;ratioP2;P2;SDS_P1;SDS_P2;PMS_P1;PMS_P2;Temp;Humidity;BMP_temperature;BMP_pressure;BME280_temperature;BME280_humidity;BME280_pressure;Samples;Min_cycle;Max_cycle;Signal;HPM_P1;HPM_P2
2022/01/09 00:00:19;;;;;;;4.07;1.30;;;23.30;34.90;;;;;;5024343;28;20045;-46
2022/01/09 00:02:45;;;;;;;3.20;1.55;;;23.20;34.70;;;;;;5004838;28;20233;-46
2022/01/09 00:05:12;;;;;;;3.78;2.05;;;23.20;34.70;;;;;;5004773;28;20152;-46
2022/01/09 00:07:38;;;;;;;2.95;1.50;;;23.20;34.70;;;;;;5005020;28;20061;-45
2022/01/09 00:10:05;;;;;;;3.40;1.70;;;23.20;34.70;;;;;;5004206;28;20034;-46
2022/01/09 00:12:31;;;;;;;3.47;1.75;;;23.20;34.60;;;;;;5015137;28;20037;-46
2022/01/09 00:14:57;;;;;;;3.55;1.90;;;23.10;34.60;;;;;;5023842;28;20371;-45
2022/01/09 00:17:23;;;;;;;2.80;1.33;;;23.10;34.60;;;;;;5023945;28;20048;-46
2022/01/09 00:19:48;;;;;;;3.20;1.67;;;23.10;34.60;;;;;;5023698;28;20038;-46
2022/01/09 00:22:16;;;;;;;3.40;1.40;;;23.10;34.60;;;;;;5023687;28;20029;-46
2022/01/09 00:24:42;;;;;;;2.97;1.50;;;23.10;34.60;;;;;;5023701;28;20477;-45
2022/01/09 00:27:08;;;;;;;3.65;1.85;;;23.10;34.60;;;;;;5019040;28;20034;-46
2022/01/09 00:29:33;;;;;;;3.33;1.52;;;23.10;34.60;;;;;;5023785;28;20032;-45
2022/01/09 00:31:59;;;;;;;3.88;1.40;;;23.00;34.50;;;;;;5015395;28;20032;-46
2022/01/09 00:34:25;;;;;;;2.95;1.40;;;23.00;34.50;;;;;;5023538;28;20037;-46
2022/01/09 00:36:51;;;;;;;2.92;1.55;;;23.00;34.50;;;;;;5023604;28;20033;-46
2022/01/09 00:39:16;;;;;;;3.15;1.30;;;23.00;34.50;;;;;;5023815;28;20113;-46
2022/01/09 00:41:42;;;;;;;3.42;1.63;;;23.00;34.50;;;;;;5020665;28;20131;-45
2022/01/09 00:44:08;;;;;;;2.80;1.45;;;23.00;34.50;;;;;;5003941;28;20030;-46
2022/01/09 00:46:34;;;;;;;3.35;1.63;;;23.00;34.50;;;;;;5004189;28;20560;-46
2022/01/09 00:49:03;;;;;;;2.88;1.30;;;23.00;34.50;;;;;;5003905;28;20612;-46
2022/01/09 00:51:31;;;;;;;4.28;1.70;;;23.00;34.50;;;;;;5004136;28;20697;-46
2022/01/09 00:53:57;;;;;;;3.15;1.27;;;22.90;34.50;;;;;;5003265;28;20078;-46
2022/01/09 00:56:23;;;;;;;3.22;1.63;;;22.90;34.50;;;;;;5004214;28;20021;-46
2022/01/09 00:58:48;;;;;;;3.25;1.20;;;22.90;34.50;;;;;;5002442;28;20022;-46
2022/01/09 01:01:14;;;;;;;3.55;1.50;;;22.90;34.50;;;;;;5003874;28;20038;-46
2022/01/09 01:03:40;;;;;;;2.80;1.20;;;22.90;34.60;;;;;;5004528;28;20026;-45
2022/01/09 01:06:06;;;;;;;3.10;1.38;;;22.80;34.40;;;;;;5004490;28;20030;-46
2022/01/09 01:08:32;;;;;;;3.03;1.50;;;22.80;34.40;;;;;;5008208;28;20045;-46
2022/01/09 01:10:57;;;;;;;2.90;1.27;;;22.90;34.50;;;;;;5008256;28;20054;-46
2022/01/09 01:13:23;;;;;;;2.90;1.52;;;22.80;34.50;;;;;;5007568;28;20046;-46
2022/01/09 01:15:49;;;;;;;3.05;1.55;;;22.80;34.40;;;;;;5008192;28;20100;-46
2022/01/09 01:18:15;;;;;;;2.70;1.23;;;22.80;34.50;;;;;;5006171;28;20044;-45
2022/01/09 01:20:41;;;;;;;2.92;1.42;;;22.80;34.50;;;;;;5008167;28;20026;-46
2022/01/09 01:23:08;;;;;;;3.05;1.33;;;22.70;34.40;;;;;;5007736;28;20037;-45
2022/01/09 01:25:35;;;;;;;2.95;1.30;;;22.80;34.40;;;;;;5008074;28;20478;-46
2022/01/09 01:28:01;;;;;;;2.90;1.25;;;22.70;34.50;;;;;;5020639;28;20040;-45
2022/01/09 01:30:27;;;;;;;3.03;1.60;;;22.70;34.50;;;;;;5026524;28;20581;-46
2022/01/09 01:32:53;;;;;;;3.40;1.80;;;22.70;34.50;;;;;;5020142;28;20040;-46
2022/01/09 01:35:19;;;;;;;3.80;1.77;;;22.70;34.60;;;;;;5027813;28;20104;-45
2022/01/09 01:37:45;;;;;;;2.55;1.20;;;22.70;34.60;;;;;;5027600;28;20072;-45
2022/01/09 01:40:17;;;;;;;3.13;1.30;;;22.70;34.70;;;;;;5026989;28;20685;-47
2022/01/09 01:42:43;;;;;;;2.95;1.48;;;22.70;34.70;;;;;;5026770;28;20625;-45
2022/01/09 01:45:10;;;;;;;3.40;1.60;;;22.60;34.50;;;;;;5027112;28;20022;-45
2022/01/09 01:47:36;;;;;;;3.13;1.40;;;22.60;34.50;;;;;;5027573;28;20441;-46
2022/01/09 01:50:08;;;;;;;2.75;1.25;;;22.60;34.50;;;;;;5025980;28;20025;-45
2022/01/09 01:52:40;;;;;;;3.08;1.60;;;22.70;34.60;;;;;;5027902;28;20029;-46
2022/01/09 01:55:08;;;;;;;2.72;1.40;;;22.60;34.50;;;;;;5027474;28;20689;-46
2022/01/09 01:57:35;;;;;;;2.60;1.35;;;22.60;34.40;;;;;;5026954;28;20047;-45
2022/01/09 02:00:02;;;;;;;3.40;1.80;;;22.60;34.50;;;;;;5027146;28;20034;-46
2022/01/09 02:02:28;;;;;;;2.92;1.33;;;22.60;34.40;;;;;;5009072;28;20501;-45
2022/01/09 02:04:54;;;;;;;2.95;1.60;;;22.60;34.50;;;;;;5006017;28;20088;-46
2022/01/09 02:07:20;;;;;;;3.22;1.52;;;22.60;34.50;;;;;;5007207;28;20654;-45
2022/01/09 02:09:46;;;;;;;3.50;1.48;;;22.60;34.50;;;;;;5007113;28;20030;-46
2022/01/09 02:12:11;;;;;;;3.50;1.42;;;22.50;34.50;;;;;;5006780;28;20046;-46
2022/01/09 02:14:38;;;;;;;3.70;2.00;;;22.50;34.50;;;;;;5007235;28;20030;-46
2022/01/09 02:17:05;;;;;;;3.78;1.70;;;22.50;34.50;;;;;;5006981;28;20084;-46
2022/01/09 02:19:31;;;;;;;3.03;1.52;;;22.50;34.50;;;;;;5005705;28;20037;-46
2022/01/09 02:21:59;;;;;;;2.90;1.52;;;22.50;34.50;;;;;;5006452;28;20064;-46
2022/01/09 02:24:25;;;;;;;2.67;1.60;;;22.50;34.50;;;;;;5006435;28;20631;-46
2022/01/09 02:26:52;;;;;;;3.22;1.50;;;22.50;34.50;;;;;;5009093;28;20116;-46
2022/01/09 02:29:18;;;;;;;2.95;1.48;;;22.50;34.50;;;;;;5026757;28;20014;-46
2022/01/09 02:31:45;;;;;;;3.00;1.67;;;22.50;34.50;;;;;;5018552;28;20772;-45
2022/01/09 02:34:11;;;;;;;2.50;1.40;;;22.50;34.50;;;;;;5025994;28;20040;-46
2022/01/09 02:36:37;;;;;;;3.55;1.90;;;22.40;34.40;;;;;;5026593;28;20033;-45
2022/01/09 02:39:03;;;;;;;3.13;1.60;;;22.50;34.50;;;;;;5026046;28;20072;-49
2022/01/09 02:41:29;;;;;;;3.78;2.08;;;22.40;34.40;;;;;;5026574;28;20517;-46
2022/01/09 02:43:55;;;;;;;3.50;2.00;;;22.40;34.30;;;;;;5025725;28;20021;-46
2022/01/09 02:46:40;;;;;;;3.95;1.98;;;22.40;34.40;;;;;;5026511;28;20109;-46
2022/01/09 02:49:07;;;;;;;2.83;1.60;;;22.40;34.40;;;;;;5025832;28;20029;-46
2022/01/09 02:51:39;;;;;;;3.20;2.00;;;22.40;34.40;;;;;;5026419;28;20029;-46
2022/01/09 02:56:54;;;;;;;3.25;1.77;;;22.40;34.40;;;;;;5010945;28;20113;-46
2022/01/09 02:59:20;;;;;;;3.67;2.08;;;22.30;34.40;;;;;;5026029;28;20136;-45
2022/01/09 03:01:46;;;;;;;3.05;1.85;;;22.30;34.40;;;;;;5013419;28;20056;-46
2022/01/09 03:04:11;;;;;;;4.00;2.50;;;22.30;34.40;;;;;;5006083;28;20533;-46
2022/01/09 03:06:37;;;;;;;3.97;2.33;;;22.30;34.30;;;;;;5006256;28;20026;-46
2022/01/09 03:09:06;;;;;;;3.75;2.17;;;22.30;34.40;;;;;;5005963;28;20030;-45
2022/01/09 03:11:32;;;;;;;3.38;2.00;;;22.30;34.30;;;;;;5005874;28;20171;-46
2022/01/09 03:13:58;;;;;;;3.92;2.53;;;22.30;34.40;;;;;;5024742;28;20034;-46
2022/01/09 03:16:23;;;;;;;3.70;2.10;;;22.30;34.40;;;;;;5025688;28;20090;-46
2022/01/09 03:18:49;;;;;;;3.88;2.47;;;22.30;34.30;;;;;;5025270;28;20033;-46
2022/01/09 03:21:15;;;;;;;4.05;2.38;;;22.30;34.30;;;;;;5025873;28;20108;-46
2022/01/09 03:23:41;;;;;;;3.58;2.33;;;22.30;34.40;;;;;;5025334;28;20030;-45
2022/01/09 03:26:09;;;;;;;3.67;2.25;;;22.30;34.50;;;;;;5025830;28;20075;-46
2022/01/09 03:28:35;;;;;;;4.00;2.55;;;22.20;34.50;;;;;;5024928;28;20033;-46
2022/01/09 03:31:01;;;;;;;3.88;2.58;;;22.20;34.50;;;;;;5018989;28;20063;-45
2022/01/09 03:33:27;;;;;;;3.97;2.40;;;22.20;34.40;;;;;;5022510;28;20038;-46
2022/01/09 03:35:53;;;;;;;3.28;2.13;;;22.20;34.40;;;;;;5025276;28;20492;-46
2022/01/09 03:38:19;;;;;;;4.10;2.63;;;22.20;34.30;;;;;;5024996;28;20475;-46
2022/01/09 03:40:44;;;;;;;4.05;2.55;;;22.20;34.30;;;;;;5024028;28;20655;-46
2022/01/09 03:43:10;;;;;;;4.10;2.70;;;22.20;34.30;;;;;;5013421;28;20121;-46
2022/01/09 03:45:36;;;;;;;3.67;2.17;;;22.10;34.30;;;;;;5016971;28;20098;-45
2022/01/09 03:48:02;;;;;;;3.92;2.58;;;22.10;34.30;;;;;;5024946;28;20017;-46
2022/01/09 03:50:28;;;;;;;4.00;2.60;;;22.10;34.30;;;;;;5024449;28;20067;-45
2022/01/09 03:52:54;;;;;;;3.92;2.30;;;22.20;34.30;;;;;;5025154;28;20740;-46
2022/01/09 03:55:22;;;;;;;4.00;2.75;;;22.10;34.30;;;;;;5025312;28;20035;-45
2022/01/09 03:57:48;;;;;;;4.13;2.75;;;22.10;34.30;;;;;;5016364;28;20037;-46
2022/01/09 04:00:17;;;;;;;4.00;2.58;;;22.10;34.30;;;;;;5004882;28;20083;-46
2022/01/09 04:02:43;;;;;;;4.20;3.03;;;22.10;34.30;;;;;;5004764;28;20633;-46
2022/01/09 04:05:10;;;;;;;3.80;2.67;;;22.10;34.30;;;;;;5005088;28;20095;-45
2022/01/09 04:07:37;;;;;;;4.13;2.65;;;22.10;34.30;;;;;;5004887;28;20022;-46
2022/01/09 04:10:04;;;;;;;4.07;2.95;;;22.10;34.30;;;;;;5003505;28;20605;-45
2022/01/09 04:12:34;;;;;;;3.80;2.60;;;22.10;34.30;;;;;;5009710;28;20590;-45
2022/01/09 04:15:06;;;;;;;4.00;2.53;;;22.10;34.30;;;;;;5024753;28;20025;-46
2022/01/09 04:17:51;;;;;;;4.10;2.72;;;22.10;34.30;;;;;;5024186;28;20030;-46
2022/01/09 04:20:30;;;;;;;3.90;2.60;;;22.10;34.30;;;;;;5024106;28;20509;-46
2022/01/09 04:22:57;;;;;;;4.03;2.78;;;22.10;34.30;;;;;;5024230;28;20021;-45
2022/01/09 04:25:23;;;;;;;4.50;3.00;;;22.00;34.20;;;;;;5012958;28;20573;-46
2022/01/09 04:27:50;;;;;;;4.10;2.80;;;22.00;34.20;;;;;;5017050;28;20029;-46
2022/01/09 04:30:16;;;;;;;4.55;3.10;;;22.00;34.20;;;;;;5021806;28;20063;-46
2022/01/09 04:32:42;;;;;;;4.32;3.03;;;22.00;34.20;;;;;;5017933;28;20033;-46
2022/01/09 04:35:09;;;;;;;4.30;3.10;;;22.00;34.10;;;;;;5024436;28;20025;-46
2022/01/09 04:37:36;;;;;;;4.45;3.33;;;22.00;34.10;;;;;;5024389;28;20037;-46
2022/01/09 04:40:04;;;;;;;4.47;2.97;;;22.00;34.20;;;;;;5023763;28;20029;-45
2022/01/09 04:42:38;;;;;;;4.63;3.20;;;22.00;34.10;;;;;;5021180;28;20037;-45
2022/01/09 04:45:06;;;;;;;4.70;3.15;;;22.00;34.20;;;;;;5028383;28;20100;-46
2022/01/09 04:47:31;;;;;;;4.85;3.28;;;22.00;34.30;;;;;;5028514;28;20026;-46
2022/01/09 04:49:59;;;;;;;4.80;3.25;;;22.00;34.30;;;;;;5028444;28;20026;-45
2022/01/09 04:52:30;;;;;;;5.70;3.70;;;22.00;34.30;;;;;;5027683;28;20651;-46
2022/01/09 04:54:55;;;;;;;5.05;3.47;;;22.00;34.30;;;;;;5028444;28;20410;-46
2022/01/09 04:57:21;;;;;;;4.88;3.45;;;22.00;34.30;;;;;;5027800;28;20030;-46
2022/01/09 04:59:47;;;;;;;4.13;3.00;;;22.00;34.30;;;;;;5028057;28;20029;-45
2022/01/09 05:02:12;;;;;;;4.88;3.30;;;22.00;34.40;;;;;;5013658;28;20091;-46
2022/01/09 05:04:38;;;;;;;4.28;3.00;;;21.90;34.30;;;;;;5012700;28;20030;-46
2022/01/09 05:07:04;;;;;;;4.85;3.45;;;22.00;34.30;;;;;;5023484;28;20032;-46
2022/01/09 05:09:30;;;;;;;4.72;3.28;;;21.90;34.30;;;;;;5023176;28;20049;-47
2022/01/09 05:11:56;;;;;;;4.30;3.00;;;22.00;34.30;;;;;;5028264;28;20045;-46
2022/01/09 05:14:22;;;;;;;4.05;3.00;;;22.00;34.30;;;;;;5022675;28;20116;-45
2022/01/09 05:16:49;;;;;;;4.55;3.38;;;21.90;34.20;;;;;;5027875;28;20053;-46
2022/01/09 05:19:21;;;;;;;5.00;3.20;;;21.90;34.20;;;;;;5027570;28;20105;-46
2022/01/09 05:21:48;;;;;;;4.43;2.88;;;21.90;34.20;;;;;;5027397;28;20185;-46
2022/01/09 05:24:15;;;;;;;4.50;3.10;;;21.90;34.20;;;;;;5025113;28;20591;-46
2022/01/09 05:26:41;;;;;;;4.50;3.42;;;21.90;34.20;;;;;;5027706;28;20438;-46
2022/01/09 05:29:07;;;;;;;4.13;2.92;;;21.90;34.20;;;;;;5027236;28;20068;-46
2022/01/09 05:31:33;;;;;;;4.68;3.28;;;21.90;34.20;;;;;;5020654;28;20030;-46
2022/01/09 05:33:59;;;;;;;4.18;3.08;;;21.90;34.20;;;;;;5027276;28;20411;-46
2022/01/09 05:36:24;;;;;;;5.35;3.72;;;21.90;34.20;;;;;;5027392;28;20056;-46
2022/01/09 05:38:50;;;;;;;4.13;2.90;;;21.90;34.20;;;;;;5027306;28;20025;-45
2022/01/09 05:41:16;;;;;;;4.32;3.10;;;21.90;34.20;;;;;;5013781;28;20097;-45
2022/01/09 05:43:42;;;;;;;4.22;3.05;;;21.90;34.20;;;;;;5021613;28;20018;-46
2022/01/09 05:46:07;;;;;;;5.18;3.35;;;21.80;34.10;;;;;;5023943;28;20025;-46
2022/01/09 05:48:33;;;;;;;4.45;3.00;;;21.80;34.10;;;;;;5026200;28;20014;-46
2022/01/09 05:50:59;;;;;;;4.90;3.40;;;21.80;34.20;;;;;;5026584;28;20033;-45
2022/01/09 05:53:24;;;;;;;4.50;3.13;;;21.80;34.10;;;;;;5024565;28;20684;-45
2022/01/09 05:55:50;;;;;;;4.55;3.28;;;21.80;34.10;;;;;;5027099;28;20029;-46
2022/01/09 05:58:16;;;;;;;4.72;3.75;;;21.80;34.10;;;;;;5019631;28;20029;-45
2022/01/09 06:00:42;;;;;;;4.93;3.13;;;21.80;34.20;;;;;;5025568;28;20529;-45
2022/01/09 06:03:08;;;;;;;5.45;4.20;;;21.80;34.10;;;;;;5025538;28;20017;-46
2022/01/09 06:05:33;;;;;;;4.60;3.50;;;21.80;34.30;;;;;;5025928;28;20144;-45
2022/01/09 06:07:59;;;;;;;4.72;3.30;;;21.80;34.40;;;;;;5026605;28;20049;-46
2022/01/09 06:10:25;;;;;;;5.75;3.58;;;21.80;34.40;;;;;;5026288;28;20059;-46
2022/01/09 06:12:51;;;;;;;5.00;3.33;;;21.80;34.50;;;;;;5006956;28;20529;-45
2022/01/09 06:15:16;;;;;;;5.18;3.75;;;21.80;34.70;;;;;;5006225;28;20105;-45
2022/01/09 06:17:43;;;;;;;5.00;3.60;;;21.70;34.80;;;;;;5006364;28;20030;-45
2022/01/09 06:20:12;;;;;;;4.85;3.50;;;21.80;34.90;;;;;;5006360;28;20065;-45
2022/01/09 06:22:38;;;;;;;5.00;3.70;;;21.80;34.90;;;;;;5005775;28;20109;-45
2022/01/09 06:25:05;;;;;;;5.95;3.65;;;21.80;35.00;;;;;;5005989;28;20026;-45
2022/01/09 06:27:31;;;;;;;5.95;4.80;;;21.80;34.40;;;;;;5020087;28;20026;-46
2022/01/09 06:29:57;;;;;;;6.07;4.90;;;21.70;34.30;;;;;;5024963;28;20508;-45
2022/01/09 06:32:23;;;;;;;6.15;5.28;;;21.70;34.00;;;;;;5023018;28;20029;-45
2022/01/09 06:34:49;;;;;;;7.25;6.35;;;21.80;33.40;;;;;;5025106;28;20026;-45
2022/01/09 06:37:15;;;;;;;7.57;6.25;;;21.80;32.80;;;;;;5025068;28;20025;-45
2022/01/09 06:39:42;;;;;;;11.85;7.55;;;21.80;32.40;;;;;;5025787;28;20556;-46
2022/01/09 06:42:08;;;;;;;8.98;8.07;;;21.70;30.30;;;;;;5024798;28;20025;-45
2022/01/09 06:44:34;;;;;;;8.73;7.82;;;21.80;30.20;;;;;;5005559;28;20030;-45
2022/01/09 06:47:00;;;;;;;7.50;6.13;;;21.80;30.60;;;;;;5005575;28;20364;-46
2022/01/09 06:49:26;;;;;;;8.77;6.40;;;21.80;31.40;;;;;;5005088;28;20549;-45
2022/01/09 06:51:51;;;;;;;7.97;6.10;;;21.90;32.00;;;;;;5005641;28;20033;-45
2022/01/09 06:54:17;;;;;;;7.88;6.38;;;22.00;32.20;;;;;;5004559;28;20390;-46
2022/01/09 06:56:43;;;;;;;6.38;5.20;;;22.00;32.50;;;;;;5005892;28;20072;-45
2022/01/09 06:59:09;;;;;;;7.22;5.35;;;22.10;32.90;;;;;;5005447;28;20038;-45
2022/01/09 07:01:35;;;;;;;8.45;5.93;;;22.10;33.20;;;;;;5005351;28;20053;-45
2022/01/09 07:04:00;;;;;;;7.40;5.75;;;22.20;33.30;;;;;;5004959;28;20100;-45
2022/01/09 07:06:26;;;;;;;12.02;6.47;;;22.30;33.50;;;;;;5003747;28;20089;-45
2022/01/09 07:08:52;;;;;;;6.32;5.55;;;22.30;33.60;;;;;;5005251;28;20037;-46
2022/01/09 07:11:18;;;;;;;6.13;5.03;;;22.50;33.70;;;;;;5005173;28;20026;-44
2022/01/09 07:13:44;;;;;;;7.22;5.20;;;22.50;33.80;;;;;;5017066;28;20493;-46
2022/01/09 07:16:09;;;;;;;6.85;5.10;;;22.60;34.00;;;;;;5024729;28;20566;-46
2022/01/09 07:18:35;;;;;;;6.65;5.35;;;22.60;34.10;;;;;;5010224;28;20033;-46
2022/01/09 07:21:03;;;;;;;6.45;5.28;;;22.70;34.30;;;;;;5024568;28;20116;-46
2022/01/09 07:23:30;;;;;;;5.50;4.60;;;22.80;34.20;;;;;;5023572;28;20037;-46
2022/01/09 07:25:56;;;;;;;6.35;4.93;;;22.90;34.20;;;;;;5024090;28;20291;-46
2022/01/09 07:28:21;;;;;;;5.93;4.25;;;23.00;34.80;;;;;;5021609;28;20503;-46
2022/01/09 07:30:47;;;;;;;6.18;4.80;;;23.00;34.20;;;;;;5023355;28;20397;-45
2022/01/09 07:33:13;;;;;;;5.25;4.05;;;23.10;34.50;;;;;;5016163;28;20040;-45
2022/01/09 07:35:39;;;;;;;7.30;4.78;;;23.20;34.60;;;;;;5023928;28;20029;-46
2022/01/09 07:38:05;;;;;;;6.20;4.40;;;23.30;34.80;;;;;;5024100;28;20033;-46
2022/01/09 07:40:31;;;;;;;5.82;4.32;;;23.30;34.80;;;;;;5024132;28;20036;-47
2022/01/09 07:42:57;;;;;;;5.65;4.03;;;23.40;34.70;;;;;;5017474;28;20025;-44
2022/01/09 07:45:25;;;;;;;4.82;3.78;;;23.50;34.90;;;;;;5004824;28;20240;-45
2022/01/09 07:47:53;;;;;;;5.20;3.90;;;23.50;34.90;;;;;;5004665;28;20022;-45
2022/01/09 07:50:19;;;;;;;5.40;3.97;;;23.60;35.10;;;;;;5004357;28;20034;-46
2022/01/09 07:52:45;;;;;;;5.20;3.88;;;23.70;34.90;;;;;;5022583;28;20036;-46
2022/01/09 07:55:11;;;;;;;6.10;4.60;;;23.80;34.70;;;;;;5024488;28;20038;-45
2022/01/09 07:57:37;;;;;;;5.88;3.78;;;23.80;35.00;;;;;;5018731;28;20069;-45
2022/01/09 08:00:06;;;;;;;4.57;3.22;;;23.90;34.80;;;;;;5002146;28;20537;-45
2022/01/09 08:02:31;;;;;;;6.05;3.97;;;24.00;34.70;;;;;;5002914;28;20096;-46
2022/01/09 08:04:57;;;;;;;7.28;4.03;;;24.00;34.10;;;;;;5000753;28;20066;-46
2022/01/09 08:07:23;;;;;;;6.32;3.92;;;24.10;33.90;;;;;;5003403;28;20092;-45
2022/01/09 08:09:48;;;;;;;5.97;4.53;;;24.20;33.80;;;;;;5009934;28;20041;-46
2022/01/09 08:12:15;;;;;;;5.35;4.15;;;24.20;33.60;;;;;;5023290;28;20021;-46
2022/01/09 08:14:41;;;;;;;6.75;4.35;;;24.30;33.60;;;;;;5003097;28;20111;-47
2022/01/09 08:17:07;;;;;;;5.95;4.60;;;24.30;33.40;;;;;;5003167;28;20124;-47
2022/01/09 08:19:35;;;;;;;6.47;4.90;;;24.30;33.30;;;;;;5002893;28;20117;-46
2022/01/09 08:22:02;;;;;;;5.78;4.38;;;24.30;33.20;;;;;;5003407;28;20030;-46
2022/01/09 08:24:28;;;;;;;7.47;5.63;;;24.40;33.10;;;;;;5002570;28;20382;-46
2022/01/09 08:26:54;;;;;;;7.13;4.70;;;24.40;33.00;;;;;;5003443;28;20022;-47
2022/01/09 08:29:20;;;;;;;6.10;4.40;;;24.40;32.90;;;;;;5017329;28;20510;-46
2022/01/09 08:31:46;;;;;;;5.32;4.38;;;24.50;33.20;;;;;;5017752;28;20750;-45
2022/01/09 08:34:11;;;;;;;6.22;5.07;;;24.50;33.00;;;;;;5008132;28;20026;-46
2022/01/09 08:36:38;;;;;;;7.53;6.43;;;24.50;33.00;;;;;;5003635;28;20376;-46
2022/01/09 08:39:05;;;;;;;16.60;15.00;;;24.50;33.00;;;;;;5003904;28;20069;-50
2022/01/09 08:41:32;;;;;;;24.55;22.17;;;24.50;32.80;;;;;;5004066;28;20032;-46
2022/01/09 08:43:57;;;;;;;25.70;23.33;;;24.60;32.50;;;;;;5005730;28;20168;-46
2022/01/09 08:46:23;;;;;;;29.52;26.80;;;24.60;32.50;;;;;;5021448;28;20705;-46
2022/01/09 08:48:49;;;;;;;34.53;31.33;;;24.60;32.40;;;;;;5022230;28;20032;-45
2022/01/09 08:51:15;;;;;;;38.38;34.92;;;24.60;32.30;;;;;;5023220;28;20068;-46
2022/01/09 08:53:42;;;;;;;40.45;36.47;;;24.70;32.30;;;;;;5022312;28;20033;-46
2022/01/09 08:56:08;;;;;;;44.65;40.55;;;24.70;32.70;;;;;;5023197;28;20029;-46
2022/01/09 08:58:34;;;;;;;48.67;44.33;;;24.70;32.70;;;;;;5022945;28;20044;-46
2022/01/09 09:01:00;;;;;;;50.13;45.58;;;24.80;32.60;;;;;;5015511;28;20034;-46
2022/01/09 09:03:26;;;;;;;50.72;46.20;;;24.80;32.60;;;;;;5003702;28;20021;-46
2022/01/09 09:05:52;;;;;;;53.50;48.70;;;24.90;32.60;;;;;;5003611;28;20026;-46
2022/01/09 09:08:18;;;;;;;54.45;49.45;;;24.90;32.50;;;;;;5003368;28;20438;-46
2022/01/09 09:10:44;;;;;;;55.00;50.00;;;24.90;32.50;;;;;;5003766;28;20061;-46
2022/01/09 09:13:09;;;;;;;53.38;48.60;;;25.00;32.50;;;;;;5004800;28;20139;-46
2022/01/09 09:15:37;;;;;;;56.33;51.20;;;25.00;32.40;;;;;;5003905;28;20432;-46
2022/01/09 09:18:03;;;;;;;56.50;51.40;;;25.00;32.30;;;;;;5002656;28;20049;-46
2022/01/09 09:20:28;;;;;;;58.03;52.83;;;25.00;32.30;;;;;;5017823;28;20069;-46
2022/01/09 09:22:54;;;;;;;58.92;53.63;;;25.10;32.20;;;;;;5004022;28;20109;-46
2022/01/09 09:25:20;;;;;;;58.58;53.28;;;25.10;32.10;;;;;;5003888;28;20030;-46
2022/01/09 09:27:46;;;;;;;57.30;52.08;;;25.20;32.10;;;;;;5007357;28;20057;-46
2022/01/09 09:30:14;;;;;;;57.65;52.50;;;25.20;32.10;;;;;;5023608;28;20191;-46
2022/01/09 09:32:41;;;;;;;52.63;47.90;;;25.20;32.00;;;;;;5015778;28;20025;-46
2022/01/09 09:35:07;;;;;;;53.03;48.28;;;25.20;32.00;;;;;;5026743;28;20022;-47
2022/01/09 09:37:33;;;;;;;55.67;50.60;;;25.20;31.90;;;;;;5025916;28;20180;-46
2022/01/09 09:40:00;;;;;;;53.63;48.60;;;25.30;31.90;;;;;;5026489;28;20772;-46
2022/01/09 09:42:26;;;;;;;56.25;51.15;;;25.30;31.90;;;;;;5023236;28;20022;-46
2022/01/09 09:44:52;;;;;;;54.55;49.38;;;25.30;31.90;;;;;;5026262;28;20038;-46
2022/01/09 09:47:21;;;;;;;52.85;47.92;;;25.30;31.80;;;;;;5026358;28;20028;-46
2022/01/09 09:49:48;;;;;;;54.40;49.20;;;25.30;31.90;;;;;;5012974;28;20613;-45
2022/01/09 09:52:17;;;;;;;53.00;47.88;;;25.30;32.00;;;;;;5018109;28;20116;-45
2022/01/09 09:54:45;;;;;;;54.17;49.10;;;25.40;32.00;;;;;;5025885;28;20482;-46
2022/01/09 09:57:11;;;;;;;54.40;49.05;;;25.40;31.90;;;;;;5025114;28;20029;-46
2022/01/09 09:59:38;;;;;;;52.55;47.47;;;25.40;31.90;;;;;;5025392;28;20037;-46
2022/01/09 10:02:16;;;;;;;46.67;42.25;;;25.40;31.90;;;;;;5023707;28;20038;-46
2022/01/09 10:05:00;;;;;;;49.22;44.38;;;25.40;32.00;;;;;;5023431;28;20030;-46
2022/01/09 10:07:27;;;;;;;48.88;44.10;;;25.40;31.70;;;;;;5024280;28;20025;-46
2022/01/09 10:09:55;;;;;;;48.25;43.47;;;25.40;31.60;;;;;;5024554;28;20056;-46
2022/01/09 10:12:28;;;;;;;46.70;41.92;;;25.40;31.60;;;;;;5024435;28;20018;-45
2022/01/09 10:14:59;;;;;;;45.75;41.28;;;25.40;31.50;;;;;;5023130;28;20026;-46
2022/01/09 10:17:26;;;;;;;46.05;41.38;;;25.40;31.50;;;;;;5023403;28;20069;-45
2022/01/09 10:20:17;;;;;;;41.28;37.15;;;25.40;31.40;;;;;;5025943;28;20486;-50
2022/01/09 10:22:50;;;;;;;43.22;39.03;;;25.30;31.50;;;;;;5024936;28;20026;-46
2022/01/09 10:25:39;;;;;;;40.25;36.20;;;25.40;31.40;;;;;;5024449;28;20025;-46
2022/01/09 10:28:16;;;;;;;34.75;31.55;;;25.40;31.40;;;;;;5022283;28;20384;-46
2022/01/09 10:30:50;;;;;;;33.83;30.70;;;25.30;31.50;;;;;;5006758;28;20392;-46
2022/01/09 10:33:21;;;;;;;35.15;31.70;;;25.40;31.50;;;;;;5005669;28;20038;-46
2022/01/09 10:35:48;;;;;;;32.80;29.67;;;25.30;31.40;;;;;;5006276;28;20033;-46
2022/01/09 10:38:23;;;;;;;35.53;31.98;;;25.40;31.50;;;;;;5006372;28;20383;-46
2022/01/09 10:41:01;;;;;;;35.22;31.83;;;25.40;31.40;;;;;;5005326;28;20079;-46
2022/01/09 10:43:39;;;;;;;31.92;28.90;;;25.40;31.40;;;;;;5006146;28;20029;-45
2022/01/09 10:46:06;;;;;;;32.78;29.63;;;25.40;31.40;;;;;;5025238;28;20033;-46
2022/01/09 10:48:41;;;;;;;32.58;29.42;;;25.40;31.30;;;;;;5026175;28;20032;-45
2022/01/09 10:51:10;;;;;;;29.80;26.88;;;25.40;31.40;;;;;;5025872;28;20037;-46
2022/01/09 10:53:37;;;;;;;30.23;27.35;;;25.40;31.30;;;;;;5022376;28;20179;-46
2022/01/09 10:56:06;;;;;;;29.67;26.77;;;25.40;31.40;;;;;;5013849;28;20029;-46
2022/01/09 10:58:34;;;;;;;29.63;26.77;;;25.40;31.30;;;;;;5018666;28;20663;-46
2022/01/09 11:01:09;;;;;;;28.40;25.63;;;25.40;31.30;;;;;;5010732;28;20594;-46
2022/01/09 11:03:35;;;;;;;26.83;24.15;;;25.40;31.30;;;;;;5013084;28;20033;-46
2022/01/09 11:06:02;;;;;;;26.75;24.02;;;25.40;32.10;;;;;;5014959;28;20037;-45
2022/01/09 11:08:31;;;;;;;26.77;24.20;;;25.40;31.50;;;;;;5005378;28;20394;-46
2022/01/09 11:11:01;;;;;;;24.17;21.77;;;25.40;31.60;;;;;;5016758;28;20586;-46
2022/01/09 11:13:27;;;;;;;24.23;21.83;;;25.40;31.80;;;;;;5025127;28;20120;-46
2022/01/09 11:18:42;;;;;;;24.45;21.92;;;25.40;31.90;;;;;;5012702;28;20028;-45
2022/01/09 11:21:09;;;;;;;24.63;22.27;;;25.40;31.90;;;;;;5011301;28;20029;-46
2022/01/09 11:24:05;;;;;;;25.05;22.38;;;25.40;31.80;;;;;;5024677;28;20107;-45
2022/01/09 11:26:48;;;;;;;20.90;18.85;;;25.40;31.80;;;;;;5025377;28;20030;-45
2022/01/09 11:29:17;;;;;;;20.90;18.92;;;25.40;31.70;;;;;;5025039;28;20033;-46
2022/01/09 11:32:00;;;;;;;18.77;16.92;;;25.40;31.60;;;;;;5015230;28;20029;-46
2022/01/09 11:34:57;;;;;;;19.45;17.55;;;25.40;31.60;;;;;;5005381;28;20041;-46
2022/01/09 11:37:29;;;;;;;19.92;17.92;;;25.40;31.60;;;;;;5004807;28;20041;-47
2022/01/09 11:39:55;;;;;;;19.53;17.63;;;25.40;31.50;;;;;;5005005;28;20553;-46
2022/01/09 11:42:21;;;;;;;18.83;17.02;;;25.40;31.40;;;;;;5004063;28;20750;-46
2022/01/09 11:44:52;;;;;;;20.52;16.90;;;25.40;31.40;;;;;;5022028;28;20545;-46
2022/01/09 11:47:19;;;;;;;17.42;15.80;;;25.40;31.40;;;;;;5021591;28;20033;-46
2022/01/09 11:49:54;;;;;;;16.67;15.07;;;25.40;31.50;;;;;;5004381;28;20014;-46
2022/01/09 11:52:21;;;;;;;14.68;13.27;;;25.40;31.50;;;;;;5004494;28;20394;-45
2022/01/09 11:54:51;;;;;;;15.18;13.73;;;25.40;31.40;;;;;;5009781;28;20398;-46
2022/01/09 11:57:44;;;;;;;17.08;15.38;;;25.40;31.30;;;;;;5005461;28;20394;-46
2022/01/09 12:00:30;;;;;;;15.70;14.20;;;25.40;31.20;;;;;;5025076;28;20033;-45
2022/01/09 12:02:57;;;;;;;16.35;14.75;;;25.40;31.10;;;;;;5005361;28;20045;-45
2022/01/09 12:05:23;;;;;;;15.85;14.30;;;25.40;31.00;;;;;;5006062;28;20033;-46
2022/01/09 12:07:48;;;;;;;16.35;14.65;;;25.40;31.00;;;;;;5024070;28;20084;-46
2022/01/09 12:10:17;;;;;;;15.43;13.93;;;25.40;31.00;;;;;;5023719;28;20490;-46
2022/01/09 12:12:43;;;;;;;15.68;14.10;;;25.40;31.10;;;;;;5024007;28;20034;-46
2022/01/09 12:15:09;;;;;;;14.55;13.10;;;25.40;31.10;;;;;;5024992;28;20561;-45
2022/01/09 12:17:36;;;;;;;13.88;12.48;;;25.40;31.10;;;;;;5023876;28;20044;-46
2022/01/09 12:20:07;;;;;;;14.00;12.63;;;25.40;31.10;;;;;;5021084;28;20569;-46
2022/01/09 12:22:39;;;;;;;12.48;11.27;;;25.40;31.20;;;;;;5004268;28;20036;-46
2022/01/09 12:25:28;;;;;;;12.23;11.02;;;25.40;31.30;;;;;;5005084;28;20627;-46
2022/01/09 12:27:56;;;;;;;12.57;11.30;;;25.40;31.20;;;;;;5016792;28;20056;-46
2022/01/09 12:30:35;;;;;;;12.45;11.07;;;25.40;31.10;;;;;;5024584;28;20038;-45
2022/01/09 12:33:27;;;;;;;11.40;10.27;;;25.40;31.20;;;;;;5004563;28;20185;-46
2022/01/09 12:36:14;;;;;;;12.77;11.40;;;25.40;31.30;;;;;;5003987;28;20074;-46
2022/01/09 12:38:44;;;;;;;11.15;10.05;;;25.40;31.30;;;;;;5004262;28;20349;-46
2022/01/09 12:41:15;;;;;;;12.02;10.82;;;25.40;31.40;;;;;;5004471;28;20573;-45
2022/01/09 12:43:42;;;;;;;11.90;10.70;;;25.40;31.20;;;;;;5011138;28;20131;-46
2022/01/09 12:46:11;;;;;;;11.15;10.07;;;25.40;31.30;;;;;;5024459;28;20057;-45
2022/01/09 12:48:37;;;;;;;10.38;9.32;;;25.40;31.30;;;;;;5024451;28;20028;-45